createdAt,value
2019-04-22T00:01:13.678Z,96.70
2019-04-22T00:03:47.432Z,97.10
2019-04-22T00:06:32.797Z,97.30
2019-04-22T00:09:04.043Z,97.80
2019-04-22T00:11:36.969Z,97.40
2019-04-22T00:14:00.722Z,97.30
2019-04-22T00:16:38.823Z,97.60
2019-04-22T00:21:38.410Z,97.60
2019-04-22T00:24:04.471Z,96.80
2019-04-22T00:26:37.560Z,97.30
2019-04-22T00:29:36.055Z,98.50
2019-04-22T00:31:51.396Z,99.00
2019-04-22T00:34:16.666Z,99.10
2019-04-22T00:36:52.614Z,99.20
2019-04-22T00:39:33.705Z,99.90
2019-04-22T00:41:52.070Z,99.90
2019-04-22T00:44:25.658Z,99.90
2019-04-22T00:46:52.522Z,99.90
2019-04-22T00:50:06.720Z,99.90
2019-04-22T00:52:01.507Z,99.90
2019-04-22T00:54:26.083Z,99.90
2019-04-22T00:56:59.152Z,99.90
2019-04-22T00:59:23.762Z,99.90
2019-04-22T01:01:53.998Z,99.90
2019-04-22T01:04:31.497Z,99.90
2019-04-22T01:06:51.305Z,99.90
2019-04-22T01:09:25.027Z,99.90
2019-04-22T01:11:53.716Z,99.90
2019-04-22T01:14:21.660Z,99.90
2019-04-22T01:16:57.813Z,99.90
2019-04-22T01:19:32.367Z,99.90
2019-04-22T01:21:58.279Z,99.90
2019-04-22T01:24:31.090Z,99.80
2019-04-22T01:26:53.722Z,99.70
2019-04-22T01:29:20.163Z,99.90
2019-04-22T01:31:38.816Z,99.90
2019-04-22T01:34:23.208Z,99.90
2019-04-22T01:36:57.645Z,99.90
2019-04-22T01:39:31.845Z,99.90
2019-04-22T01:47:07.508Z,99.90
2019-04-22T01:49:33.425Z,99.90
2019-04-22T01:52:07.769Z,99.90
2019-04-22T01:54:45.447Z,99.90
2019-04-22T01:57:03.676Z,99.80
2019-04-22T01:59:31.693Z,98.80
2019-04-22T02:02:14.498Z,98.70
2019-04-22T02:04:51.697Z,97.90
2019-04-22T02:07:09.333Z,97.60
2019-04-22T02:12:17.303Z,97.40
2019-04-22T02:14:44.330Z,96.80
2019-04-22T02:17:17.692Z,96.50
2019-04-22T02:19:46.772Z,96.50
2019-04-22T02:22:07.093Z,96.90
2019-04-22T02:24:45.165Z,96.80
2019-04-22T02:27:17.695Z,97.00
2019-04-22T02:29:44.565Z,97.40
2019-04-22T02:35:02.194Z,98.20
2019-04-22T02:39:47.123Z,99.70
2019-04-22T02:44:48.495Z,99.90
2019-04-22T02:47:20.843Z,99.90
2019-04-22T02:49:47.414Z,99.90
2019-04-22T02:57:35.567Z,99.90
2019-04-22T03:02:19.001Z,99.90
2019-04-22T03:04:46.539Z,99.90
2019-04-22T03:07:14.796Z,99.90
2019-04-22T03:09:47.767Z,99.90
2019-04-22T03:14:51.679Z,99.90
2019-04-22T03:17:20.487Z,99.90
2019-04-22T03:25:12.454Z,99.90
2019-04-22T03:27:22.027Z,99.90
2019-04-22T03:33:09.184Z,99.90
2019-04-22T03:35:41.686Z,99.90
2019-04-22T03:42:51.952Z,99.90
2019-04-22T03:47:41.235Z,99.90
2019-04-22T03:52:38.790Z,99.90
2019-04-22T04:02:47.457Z,99.90
2019-04-22T04:05:22.291Z,99.90
2019-04-22T04:07:55.822Z,99.90
2019-04-22T04:23:07.840Z,99.90
2019-04-22T04:28:11.290Z,99.90
2019-04-22T04:30:21.287Z,99.90
2019-04-22T04:32:52.480Z,99.90
2019-04-22T04:35:35.035Z,99.90
2019-04-22T04:40:28.915Z,99.90
2019-04-22T04:42:58.327Z,99.90
2019-04-22T04:45:34.116Z,99.90
2019-04-22T04:55:26.225Z,99.90
2019-04-22T04:58:13.845Z,99.90
2019-04-22T05:02:56.269Z,99.90
2019-04-22T05:05:28.841Z,99.90
2019-04-22T05:22:44.519Z,99.90
2019-04-22T05:25:19.525Z,99.90
2019-04-22T05:27:50.930Z,99.90
2019-04-22T05:32:52.902Z,99.90
2019-04-22T05:35:20.582Z,99.90
2019-04-22T05:40:24.366Z,99.90
2019-04-22T05:42:51.479Z,99.90
2019-04-22T05:45:23.022Z,99.90
2019-04-22T05:47:52.256Z,99.90
2019-04-22T05:50:19.028Z,99.90
2019-04-22T05:52:54.185Z,99.90
2019-04-22T05:57:51.160Z,99.90
2019-04-22T06:00:30.947Z,99.90
2019-04-22T06:05:29.526Z,99.90
2019-04-22T06:07:59.169Z,99.90
2019-04-22T06:10:33.403Z,99.90
2019-04-22T06:12:59.267Z,99.90
2019-04-22T06:15:32.790Z,99.90
2019-04-22T06:18:12.696Z,99.90
2019-04-22T06:20:32.751Z,99.90
2019-04-22T06:23:04.096Z,99.90
2019-04-22T06:25:51.415Z,99.90
2019-04-22T06:28:17.197Z,99.90
2019-04-22T06:30:38.129Z,99.90
2019-04-22T06:33:13.280Z,99.90
2019-04-22T06:38:28.938Z,99.90
2019-04-22T06:40:41.806Z,99.90
2019-04-22T06:43:14.111Z,99.90
2019-04-22T06:45:35.098Z,99.90
2019-04-22T06:48:17.781Z,99.90
2019-04-22T06:50:46.484Z,99.90
2019-04-22T06:53:14.565Z,99.90
2019-04-22T06:55:41.418Z,99.90
2019-04-22T06:58:13.471Z,99.90
2019-04-22T07:00:42.909Z,95.80
2019-04-22T07:03:28.694Z,93.30
2019-04-22T07:05:41.224Z,90.50
2019-04-22T07:08:34.707Z,90.40
2019-04-22T07:13:16.270Z,89.20
2019-04-22T07:18:19.828Z,90.00
2019-04-22T07:20:47.275Z,86.30
2019-04-22T07:23:25.776Z,84.40
2019-04-22T07:28:15.610Z,82.90
2019-04-22T07:30:44.816Z,77.90
2019-04-22T07:33:19.845Z,77.10
2019-04-22T07:36:23.491Z,77.20
2019-04-22T07:38:25.675Z,76.60
2019-04-22T07:45:49.254Z,75.00
2019-04-22T07:48:26.190Z,72.90
2019-04-22T07:50:59.941Z,70.90
2019-04-22T07:53:19.611Z,69.40
2019-04-22T07:55:45.360Z,65.90
2019-04-22T08:00:43.812Z,67.00
2019-04-22T08:03:47.075Z,65.80
2019-04-22T08:05:58.742Z,65.30
2019-04-22T08:13:25.215Z,63.60
2019-04-22T08:15:55.408Z,62.30
2019-04-22T08:20:56.729Z,61.80
2019-04-22T08:23:24.542Z,59.50
2019-04-22T08:26:04.866Z,62.30
2019-04-22T08:28:26.168Z,59.30
2019-04-22T08:30:55.307Z,58.80
2019-04-22T08:33:29.306Z,58.90
2019-04-22T08:36:06.116Z,59.30
2019-04-22T08:38:37.699Z,59.50
2019-04-22T08:41:28.454Z,61.60
2019-04-22T08:43:59.359Z,58.90
2019-04-22T08:46:30.267Z,59.50
2019-04-22T08:56:29.831Z,55.70
2019-04-22T08:58:57.396Z,55.40
2019-04-22T09:01:22.739Z,55.20
2019-04-22T09:03:52.348Z,55.40
2019-04-22T09:06:39.978Z,54.50
2019-04-22T09:08:55.155Z,55.50
2019-04-22T09:11:27.043Z,54.00
2019-04-22T09:13:59.844Z,51.90
2019-04-22T09:18:56.083Z,54.50
2019-04-22T09:21:31.656Z,53.40
2019-04-22T09:23:58.689Z,52.80
2019-04-22T09:26:30.290Z,52.40
2019-04-22T09:29:03.253Z,51.20
2019-04-22T09:31:23.797Z,49.80
2019-04-22T09:33:53.439Z,52.60
2019-04-22T09:36:29.527Z,52.10
2019-04-22T09:41:27.151Z,51.10
2019-04-22T09:43:57.056Z,50.10
2019-04-22T09:46:28.297Z,50.10
2019-04-22T09:48:59.040Z,50.10
2019-04-22T09:51:26.859Z,50.60
2019-04-22T09:54:00.795Z,49.30
2019-04-22T09:56:31.783Z,51.20
2019-04-22T09:58:55.737Z,50.90
2019-04-22T10:01:29.506Z,48.10
2019-04-22T10:06:35.550Z,47.40
2019-04-22T10:09:26.958Z,47.00
2019-04-22T10:11:34.040Z,47.50
2019-04-22T10:14:01.067Z,47.60
2019-04-22T10:16:41.910Z,45.00
2019-04-22T10:21:40.036Z,44.30
2019-04-22T10:24:04.759Z,44.80
2019-04-22T10:26:35.161Z,43.50
2019-04-22T10:29:09.177Z,43.10
2019-04-22T10:33:53.231Z,42.30
2019-04-22T10:36:07.875Z,42.70
2019-04-22T10:38:36.788Z,43.10
2019-04-22T10:41:05.626Z,43.20
2019-04-22T10:43:34.927Z,42.60
2019-04-22T10:46:04.153Z,41.90
2019-04-22T10:48:32.850Z,41.70
2019-04-22T10:51:02.755Z,42.30
2019-04-22T10:53:31.339Z,42.10
2019-04-22T10:56:00.986Z,41.70
2019-04-22T10:58:30.758Z,41.90
2019-04-22T11:01:00.126Z,40.40
2019-04-22T11:03:28.946Z,41.30
2019-04-22T11:05:59.109Z,41.90
2019-04-22T11:08:33.934Z,40.80
2019-04-22T11:11:12.281Z,41.60
2019-04-22T11:13:28.474Z,41.80
2019-04-22T11:15:58.280Z,43.10
2019-04-22T11:18:27.424Z,41.40
2019-04-22T11:20:56.102Z,42.00
2019-04-22T11:23:24.733Z,40.20
2019-04-22T11:25:54.076Z,41.80
2019-04-22T11:28:23.346Z,42.20
2019-04-22T11:30:52.381Z,41.20
2019-04-22T11:33:20.957Z,39.80
2019-04-22T11:35:50.104Z,39.80
2019-04-22T11:38:19.129Z,38.40
2019-04-22T11:40:52.472Z,37.80
2019-04-22T11:43:17.854Z,39.40
2019-04-22T11:45:47.095Z,40.00
2019-04-22T11:48:17.475Z,39.60
2019-04-22T11:50:46.228Z,39.50
2019-04-22T11:53:14.844Z,39.30
2019-04-22T11:55:44.739Z,38.50
2019-04-22T11:58:14.951Z,37.30
2019-04-22T12:00:45.129Z,37.60
2019-04-22T12:03:14.766Z,36.90
2019-04-22T12:05:43.936Z,37.50
2019-04-22T12:08:13.212Z,36.30
2019-04-22T12:10:49.457Z,35.80
2019-04-22T12:13:12.325Z,34.00
2019-04-22T12:15:41.001Z,35.70
2019-04-22T12:18:11.179Z,35.10
2019-04-22T12:20:41.412Z,35.00
2019-04-22T12:23:11.165Z,35.60
2019-04-22T12:25:48.644Z,34.40
2019-04-22T12:28:11.135Z,34.60
2019-04-22T12:30:39.803Z,34.20
2019-04-22T12:33:10.936Z,34.20
2019-04-22T12:35:38.951Z,34.40
2019-04-22T12:38:10.308Z,34.50
2019-04-22T12:40:46.657Z,35.30
2019-04-22T12:43:10.166Z,32.80
2019-04-22T12:45:38.537Z,33.90
2019-04-22T12:48:08.471Z,34.70
2019-04-22T12:50:41.808Z,35.80
2019-04-22T12:53:11.366Z,33.60
2019-04-22T12:55:39.690Z,35.70
2019-04-22T12:58:09.664Z,33.30
2019-04-22T13:00:38.553Z,33.30
2019-04-22T13:03:07.394Z,34.20
2019-04-22T13:05:37.452Z,33.60
2019-04-22T13:08:07.602Z,33.20
2019-04-22T13:10:48.680Z,34.00
2019-04-22T13:13:07.146Z,32.90
2019-04-22T13:15:36.914Z,33.70
2019-04-22T13:18:14.819Z,32.50
2019-04-22T13:20:36.502Z,32.60
2019-04-22T13:23:05.227Z,33.60
2019-04-22T13:25:34.707Z,33.60
2019-04-22T13:28:04.990Z,32.50
2019-04-22T13:30:34.633Z,32.50
2019-04-22T13:33:03.281Z,32.30
2019-04-22T13:35:31.990Z,32.20
2019-04-22T13:38:01.204Z,33.00
2019-04-22T13:40:30.788Z,33.50
2019-04-22T13:43:00.685Z,32.40
2019-04-22T13:45:29.804Z,33.70
2019-04-22T13:48:16.765Z,33.50
2019-04-22T13:51:01.654Z,33.40
2019-04-22T13:58:15.741Z,33.90
2019-04-22T14:00:34.637Z,32.80
2019-04-22T14:03:22.514Z,33.20
2019-04-22T14:06:00.687Z,33.70
2019-04-22T14:08:31.215Z,33.50
2019-04-22T14:11:13.191Z,33.70
2019-04-22T14:13:30.153Z,34.30
2019-04-22T14:16:01.245Z,33.70
2019-04-22T14:18:30.775Z,34.40
2019-04-22T14:21:00.808Z,35.70
2019-04-22T14:23:30.873Z,33.30
2019-04-22T14:26:01.191Z,32.80
2019-04-22T14:28:31.274Z,33.10
2019-04-22T14:31:02.210Z,32.80
2019-04-22T14:33:32.071Z,33.20
2019-04-22T14:36:00.733Z,33.70
2019-04-22T14:38:32.301Z,32.70
2019-04-22T14:41:00.845Z,33.20
2019-04-22T14:44:01.741Z,33.20
2019-04-22T14:46:31.592Z,32.30
2019-04-22T14:48:50.199Z,33.30
2019-04-22T14:51:16.747Z,33.20
2019-04-22T14:53:50.218Z,32.80
2019-04-22T14:56:02.317Z,32.40
2019-04-22T14:58:31.210Z,32.60
2019-04-22T15:01:01.254Z,33.40
2019-04-22T15:03:31.443Z,32.60
2019-04-22T15:06:00.272Z,34.10
2019-04-22T15:08:29.006Z,33.50
2019-04-22T15:10:58.225Z,32.10
2019-04-22T15:13:27.363Z,31.80
2019-04-22T15:16:03.036Z,32.60
2019-04-22T15:18:35.744Z,33.70
2019-04-22T15:21:06.939Z,33.70
2019-04-22T15:23:35.723Z,32.30
2019-04-22T15:26:04.639Z,33.10
2019-04-22T15:28:33.467Z,32.90
2019-04-22T15:31:03.473Z,33.40
2019-04-22T15:33:33.118Z,33.60
2019-04-22T15:36:01.807Z,33.60
2019-04-22T15:38:32.251Z,33.90
2019-04-22T15:41:01.043Z,34.80
2019-04-22T15:43:31.667Z,34.10
2019-04-22T15:46:02.278Z,34.60
2019-04-22T15:48:32.443Z,36.50
2019-04-22T15:51:00.556Z,37.20
2019-04-22T15:53:29.645Z,37.40
2019-04-22T15:55:58.802Z,36.90
2019-04-22T15:58:28.174Z,36.20
2019-04-22T16:01:08.761Z,36.20
2019-04-22T16:03:26.996Z,37.10
2019-04-22T16:05:55.535Z,35.50
2019-04-22T16:08:24.742Z,35.60
2019-04-22T16:10:53.710Z,34.10
2019-04-22T16:13:26.553Z,34.10
2019-04-22T16:15:54.528Z,34.40
2019-04-22T16:18:24.355Z,35.60
2019-04-22T16:20:54.302Z,34.30
2019-04-22T16:23:42.734Z,34.40
2019-04-22T16:26:30.483Z,34.90
2019-04-22T16:28:59.614Z,34.00
2019-04-22T16:31:29.522Z,35.30
2019-04-22T16:33:58.449Z,35.30
2019-04-22T16:36:28.711Z,34.40
2019-04-22T16:38:57.566Z,34.80
2019-04-22T16:41:26.490Z,33.70
2019-04-22T16:43:56.325Z,34.90
2019-04-22T16:46:25.598Z,33.80
2019-04-22T16:48:54.240Z,33.90
2019-04-22T16:51:24.448Z,33.90
2019-04-22T16:53:53.953Z,35.00
2019-04-22T16:56:22.607Z,33.80
2019-04-22T16:58:52.581Z,33.60
2019-04-22T17:01:38.796Z,34.20
2019-04-22T17:04:12.341Z,33.20
2019-04-22T17:06:45.597Z,33.40
2019-04-22T17:09:17.509Z,33.80
2019-04-22T17:11:45.706Z,34.80
2019-04-22T17:14:19.037Z,33.70
2019-04-22T17:16:46.284Z,34.80
2019-04-22T17:19:15.310Z,33.40
2019-04-22T17:21:44.107Z,32.30
2019-04-22T17:24:13.994Z,32.50
2019-04-22T17:26:42.601Z,32.60
2019-04-22T17:29:12.499Z,32.60
2019-04-22T17:31:50.268Z,33.00
2019-04-22T17:34:11.654Z,33.50
2019-04-22T17:36:40.676Z,32.50
2019-04-22T17:39:22.782Z,33.10
2019-04-22T17:41:59.653Z,32.90
2019-04-22T17:44:41.403Z,33.40
2019-04-22T17:47:05.273Z,33.80
2019-04-22T17:49:50.288Z,34.00
2019-04-22T17:52:21.577Z,34.10
2019-04-22T17:54:50.007Z,34.30
2019-04-22T17:57:22.474Z,35.20
2019-04-22T17:59:55.188Z,37.50
2019-04-22T18:02:22.536Z,42.80
2019-04-22T18:04:40.100Z,44.50
2019-04-22T18:07:29.631Z,45.40
2019-04-22T18:10:20.707Z,46.30
2019-04-22T18:12:33.808Z,47.00
2019-04-22T18:14:59.130Z,48.30
2019-04-22T18:17:34.032Z,47.60
2019-04-22T18:19:52.230Z,47.90
2019-04-22T18:22:19.939Z,47.90
2019-04-22T18:24:51.677Z,48.20
2019-04-22T18:27:43.478Z,48.70
2019-04-22T18:29:51.567Z,48.80
2019-04-22T18:32:17.642Z,49.10
2019-04-22T18:34:48.015Z,49.90
2019-04-22T18:37:19.877Z,49.40
2019-04-22T18:39:58.986Z,49.60
2019-04-22T18:42:23.829Z,49.90
2019-04-22T18:45:06.551Z,49.80
2019-04-22T18:47:25.266Z,50.20
2019-04-22T18:49:55.444Z,50.80
2019-04-22T18:52:42.723Z,50.80
2019-04-22T18:55:08.652Z,50.70
2019-04-22T18:57:44.071Z,51.20
2019-04-22T19:00:21.552Z,51.30
2019-04-22T19:02:59.036Z,51.10
2019-04-22T19:05:40.093Z,51.30
2019-04-22T19:13:49.118Z,51.70
2019-04-22T19:15:53.862Z,51.80
2019-04-22T19:18:25.707Z,51.80
2019-04-22T19:20:53.478Z,52.90
2019-04-22T19:23:20.869Z,52.50
2019-04-22T19:25:42.096Z,52.80
2019-04-22T19:28:23.863Z,53.00
2019-04-22T19:30:59.448Z,53.10
2019-04-22T19:33:23.941Z,53.40
2019-04-22T19:35:44.450Z,53.50
2019-04-22T19:38:12.216Z,53.70
2019-04-22T19:41:00.906Z,53.80
2019-04-22T19:43:22.873Z,53.80
2019-04-22T19:45:55.409Z,54.10
2019-04-22T19:48:33.011Z,54.00
2019-04-22T19:51:00.124Z,53.80
2019-04-22T19:53:29.688Z,54.40
2019-04-22T19:55:52.421Z,54.70
2019-04-22T19:58:20.225Z,55.00
2019-04-22T20:00:54.668Z,55.30
2019-04-22T20:03:42.811Z,54.90
2019-04-22T20:06:15.558Z,54.70
2019-04-22T20:08:48.826Z,53.70
2019-04-22T20:11:21.746Z,51.40
2019-04-22T20:13:47.945Z,51.40
2019-04-22T20:16:06.140Z,51.40
2019-04-22T20:18:52.373Z,52.60
2019-04-22T20:21:25.144Z,55.10
2019-04-22T20:23:39.556Z,55.90
2019-04-22T20:26:12.495Z,56.20
2019-04-22T20:28:46.621Z,56.50
2019-04-22T20:31:22.095Z,56.50
2019-04-22T20:33:50.268Z,56.50
2019-04-22T20:36:39.430Z,56.70
2019-04-22T20:38:48.180Z,57.30
2019-04-22T20:41:17.066Z,57.70
2019-04-22T20:43:54.552Z,58.10
2019-04-22T20:46:20.731Z,58.20
2019-04-22T20:48:56.964Z,55.50
2019-04-22T20:51:29.653Z,54.50
2019-04-22T20:53:56.762Z,53.70
2019-04-22T20:56:18.813Z,52.80
2019-04-22T20:58:51.780Z,51.50
2019-04-22T21:01:22.810Z,51.30
2019-04-22T21:03:41.889Z,51.10
2019-04-22T21:06:23.952Z,50.90
2019-04-22T21:08:54.635Z,50.90
2019-04-22T21:11:19.611Z,51.00
2019-04-22T21:13:54.298Z,50.70
2019-04-22T21:16:26.809Z,51.20
2019-04-22T21:18:46.085Z,50.90
2019-04-22T21:21:26.427Z,51.40
2019-04-22T21:23:47.656Z,51.10
2019-04-22T21:26:24.031Z,50.80
2019-04-22T21:28:53.803Z,51.30
2019-04-22T21:31:29.568Z,51.10
2019-04-22T21:33:51.620Z,51.20
2019-04-22T21:36:30.219Z,51.70
2019-04-22T21:38:53.075Z,51.90
2019-04-22T21:41:24.984Z,52.10
2019-04-22T21:44:01.012Z,52.10
2019-04-22T21:46:32.488Z,52.10
2019-04-22T21:49:00.141Z,52.50
2019-04-22T21:51:33.114Z,52.70
2019-04-22T21:54:06.783Z,53.00
2019-04-22T21:56:42.361Z,53.00
2019-04-22T21:59:01.927Z,53.00
2019-04-22T22:01:44.716Z,53.00
2019-04-22T22:04:04.781Z,53.40
2019-04-22T22:06:28.376Z,53.20
2019-04-22T22:09:13.437Z,53.10
2019-04-22T22:11:35.717Z,53.60
2019-04-22T22:14:07.804Z,53.40
2019-04-22T22:16:32.102Z,53.20
2019-04-22T22:19:11.050Z,53.40
2019-04-22T22:21:47.488Z,53.40
2019-04-22T22:24:18.172Z,53.70
2019-04-22T22:26:44.529Z,53.30
2019-04-22T22:29:24.653Z,53.40
2019-04-22T22:31:51.700Z,53.70
2019-04-22T22:34:15.243Z,53.60
2019-04-22T22:36:36.688Z,53.30
2019-04-22T22:39:04.032Z,53.40
2019-04-22T22:41:21.611Z,53.60
2019-04-22T22:43:52.771Z,53.70
2019-04-22T22:46:33.053Z,54.40
2019-04-22T22:49:20.450Z,53.80
2019-04-22T22:51:45.347Z,54.00
2019-04-22T22:54:12.198Z,53.50
2019-04-22T22:56:52.960Z,53.90
2019-04-22T22:59:08.280Z,54.90
2019-04-22T23:01:45.625Z,54.90
2019-04-22T23:04:16.195Z,54.60
2019-04-22T23:06:48.226Z,54.60
2019-04-22T23:09:13.484Z,54.70
2019-04-22T23:11:59.404Z,55.20
2019-04-22T23:14:14.490Z,55.10
2019-04-22T23:16:33.651Z,54.50
2019-04-22T23:19:04.508Z,54.30
2019-04-22T23:21:39.662Z,54.40
2019-04-22T23:24:23.406Z,54.50
2019-04-22T23:26:53.956Z,54.80
2019-04-22T23:29:25.390Z,54.80
2019-04-22T23:31:59.642Z,55.40
2019-04-22T23:34:24.970Z,55.70
2019-04-22T23:37:06.228Z,56.60
2019-04-22T23:39:47.756Z,56.30
2019-04-22T23:42:14.580Z,56.10
2019-04-22T23:44:41.884Z,56.50
2019-04-22T23:47:11.171Z,56.50
2019-04-22T23:49:42.062Z,56.70
2019-04-22T23:52:22.426Z,57.20
2019-04-22T23:54:58.919Z,57.40
2019-04-22T23:57:29.234Z,57.50
2019-04-22T23:59:56.400Z,57.50
